Columbia Falls, MT

8:11 AM MST on February 21, 2017 (GMT -0700)
Eko | | Change Station
Active Advisory: Winter Weather Advisory

Elev 3040 ft 48.37 °N, 114.19 °W | Updated 18 seconds ago

Snow
Snow
33.3 °F
Feels Like 33 °F
N
0.0
Wind Variable Wind from South

Today
High -- | Low -- °F
--% Chance of Precip.
Yesterday
High -- | Low -- °F
Precip. -- in
Pressure 29.68 in
Visibility 10.0 miles
Clouds Few 7500 ft
Scattered Clouds 11000 ft
Windchill 33 °F
Dew Point 32 °F
Humidity 94%
Rainfall 0.14 in
Snow Depth Not available.
7:32 AM 6:08 PM
Waning Crescent, 24% visible
METAR KCTB 211456Z AUTO 01009KT 10SM FEW075 SCT110 00/M04 A2961 RMK AO2 SLP049 T00001044 50001
Pressure 29.68 in
Visibility 10.0 miles
Clouds Few 7500 ft
Scattered Clouds 11000 ft
Windchill 33 °F
Dew Point 32 °F
Humidity 94%
Rainfall 0.14 in
Snow Depth Not available.
7:32 AM 6:08 PM
Waning Crescent, 24% visible
METAR KCTB 211456Z AUTO 01009KT 10SM FEW075 SCT110 00/M04 A2961 RMK AO2 SLP049 T00001044 50001

Get Your Daily Forecast Email!

Thanks for signing up!

Be on the lookout for a verification email in your inbox.

You'll start receiving the daily forecast at 8 AM.

×

10-Day Weather Forecast

Almanac

Astronomy

Feb. 21, 2017 Rise Set
Actual Time
Civil Twilight
Nautical Twilight
Astronomical Twilight
Moon
Length of Visible Light
Length of Day
Tomorrow will be .
, % of the Moon is Illuminated

Today's Extremes

State Highs State Lows

Community

WunderPhotos

Upload Photos

1,962,540 photos uploaded!

WunderBlog® & News

Nearby

Air Quality

  Air Quality AQ Index Pollutant
Not available.

Snow Depth

Station Depth Elevation

Earthquake Activity

City Distance Mag. Time & Date
Minimum magnitude displayed is 2.5.

Coastal Water Temperatures

Place Temperature

Stations

Nearby Weather Stations

Station Location Temp. Windchill Dew Point Humidity Wind Precip. Elev Updated Type
                   

Watches & Warnings

Winter Weather Advisory
Issued: 5:06 AM MST Feb. 21, 2017 – National Weather Service

... Winter Weather Advisory in effect until 11 am MST this
morning...

* impacts/timing: wet roads and freezing temperatures overnight
have lead to black ice on primary and secondary roadways this
morning. In addition, a band of light snow mixed with rain or
freezing rain will push through the region for the morning
commute causing slippery roadways. Allow extra drive time this
morning as Road conditions will be highly variable and
potentially hazardous through mid to late morning.

* Snow accumulations: trace to 1 inch.